Big Laurel, Kentucky
Current Conditions -  °F | °C
As of 5:35 PM on Sunday 23 Nov 2014 (Local Time) from KI35 Reporting Station
Overcast Overcast  
Wind Chill: 55°   Ceiling: 9000
Heat Index: 55°   Visibility: 10mi
Dew Point: 50°   Wind: 16mph
Humidity: 82%   Direction: 120°ESE
Pressure: 29.64"   Gusts: 28mph
Location:  36.98°N, 83.22°W
Report Text: KI35 232235Z AUTO 12014G24KT 090V150 10SM BKN090 OVC110 13/10 A2964 RMK AO1
Loading
Personal Weather Stations






























Interactive Weather Map New forecast layout! Learn more

10-Day Weather Forecast

Advertisements
Track Severe Weather on mobile